Time;durP1;ratioP1;P1;durP2;ratioP2;P2;SDS_P1;SDS_P2;PMS_P1;PMS_P2;Temp;Humidity;BMP_temperature;BMP_pressure;BME280_temperature;BME280_humidity;BME280_pressure;Samples;Min_cycle;Max_cycle;Signal;HPM_P1;HPM_P2
2021/05/07 00:01:05;;;;;;;6.47;3.53;;;;;;;19.35;45.79;99408.31;5029090;28;20017;-37
2021/05/07 00:03:30;;;;;;;11.48;3.70;;;;;;;19.51;45.17;99409.97;5029363;28;20031;-37
2021/05/07 00:05:56;;;;;;;5.88;3.53;;;;;;;19.42;45.35;99411.56;5030648;28;20100;-37
2021/05/07 00:08:22;;;;;;;4.47;3.50;;;;;;;19.32;45.64;99415.09;5030529;28;20482;-38
2021/05/07 00:10:48;;;;;;;5.38;3.40;;;;;;;19.32;45.46;99414.25;5030717;28;20025;-38
2021/05/07 00:13:13;;;;;;;4.72;3.90;;;;;;;19.39;45.67;99406.69;5030374;28;20072;-37
2021/05/07 00:15:38;;;;;;;4.93;3.33;;;;;;;19.51;45.37;99403.72;5030299;28;20021;-37
2021/05/07 00:18:04;;;;;;;6.50;3.50;;;;;;;19.49;44.89;99395.91;5030312;28;20378;-37
2021/05/07 00:20:29;;;;;;;5.55;3.47;;;;;;;19.37;45.33;99400.78;5029007;28;20026;-38
2021/05/07 00:22:55;;;;;;;5.20;3.15;;;;;;;19.32;45.55;99396.19;5030162;28;20454;-37
2021/05/07 00:25:20;;;;;;;4.82;3.55;;;;;;;19.15;46.45;99390.22;5030290;28;20026;-38
2021/05/07 00:27:46;;;;;;;4.78;3.53;;;;;;;19.14;46.48;99394.03;5029891;28;20033;-38
2021/05/07 00:30:12;;;;;;;6.03;3.50;;;;;;;19.03;46.29;99392.38;5029820;28;20025;-38
2021/05/07 00:32:37;;;;;;;8.55;3.38;;;;;;;19.06;46.57;99392.66;5030207;28;20189;-38
2021/05/07 00:35:03;;;;;;;5.47;3.40;;;;;;;18.98;46.34;99395.88;5029916;28;20117;-38
2021/05/07 00:37:28;;;;;;;6.57;3.60;;;;;;;18.85;47.18;99402.59;5030425;28;20025;-38
2021/05/07 00:39:54;;;;;;;5.53;3.70;;;;;;;18.87;46.80;99396.94;5029934;28;20026;-37
2021/05/07 00:42:19;;;;;;;6.63;3.42;;;;;;;18.92;46.94;99403.16;5029926;28;20032;-38
2021/05/07 00:44:45;;;;;;;8.15;3.70;;;;;;;18.91;47.55;99403.44;5030009;28;20025;-38
2021/05/07 00:47:10;;;;;;;5.75;3.70;;;;;;;18.94;47.51;99405.56;5029702;28;20424;-38
2021/05/07 00:49:36;;;;;;;8.75;3.75;;;;;;;18.87;47.28;99392.38;5028595;28;20038;-38
2021/05/07 00:52:02;;;;;;;8.77;4.20;;;;;;;18.82;47.48;99396.94;5029260;28;20028;-38
2021/05/07 00:54:28;;;;;;;5.78;4.03;;;;;;;18.74;47.50;99385.56;5029749;28;20017;-38
2021/05/07 00:56:54;;;;;;;6.63;4.22;;;;;;;18.68;48.43;99397.41;5028354;28;20481;-38
2021/05/07 00:59:19;;;;;;;11.18;4.70;;;;;;;18.67;47.97;99392.28;5033184;28;20029;-37
2021/05/07 01:01:45;;;;;;;8.52;4.22;;;;;;;18.47;49.05;99399.22;5032701;28;20028;-37
2021/05/07 01:04:10;;;;;;;7.88;4.15;;;;;;;18.49;49.10;99396.28;5033863;28;20434;-37
2021/05/07 01:06:36;;;;;;;6.82;4.13;;;;;;;18.63;48.86;99400.06;5034073;28;20033;-37
2021/05/07 01:09:01;;;;;;;6.53;4.47;;;;;;;18.61;48.41;99402.22;5033712;28;20029;-38
2021/05/07 01:11:27;;;;;;;10.65;4.38;;;;;;;18.62;49.13;99414.63;5033816;28;20038;-38
2021/05/07 01:13:52;;;;;;;5.97;4.10;;;;;;;18.57;48.34;99398.44;5033278;28;20524;-38
2021/05/07 01:16:18;;;;;;;9.77;4.43;;;;;;;18.52;49.45;99412.72;5033579;28;20033;-38
2021/05/07 01:18:43;;;;;;;6.68;4.20;;;;;;;18.58;48.63;99421.59;5033262;28;20033;-38
2021/05/07 01:21:08;;;;;;;10.55;4.47;;;;;;;18.60;47.94;99418.66;5033859;28;20026;-37
2021/05/07 01:23:34;;;;;;;5.97;4.10;;;;;;;18.57;48.59;99420.00;5033169;28;20465;-37
2021/05/07 01:25:59;;;;;;;6.82;4.05;;;;;;;18.58;48.20;99424.31;5033147;28;20017;-37
2021/05/07 01:28:26;;;;;;;6.03;4.07;;;;;;;18.63;48.13;99423.53;5033078;28;20079;-37
2021/05/07 01:30:52;;;;;;;6.03;4.13;;;;;;;18.60;47.61;99419.50;5033255;28;20449;-37
2021/05/07 01:33:17;;;;;;;6.80;4.47;;;;;;;18.53;48.78;99413.53;5033045;28;20151;-37
2021/05/07 01:35:43;;;;;;;7.50;4.40;;;;;;;18.21;48.87;99419.03;5032672;28;20033;-38
2021/05/07 01:38:13;;;;;;;5.57;3.72;;;;;;;18.13;49.54;99415.75;5033187;28;20109;-37
2021/05/07 01:40:40;;;;;;;6.72;4.13;;;;;;;18.17;49.29;99427.63;5033141;28;20022;-38
2021/05/07 01:43:06;;;;;;;6.47;4.45;;;;;;;18.24;48.81;99422.03;5032992;28;20049;-38
2021/05/07 01:45:33;;;;;;;7.95;4.90;;;;;;;18.21;49.50;99411.75;5031399;28;20072;-37
2021/05/07 01:47:59;;;;;;;6.47;4.30;;;;;;;18.34;48.76;99416.66;5014652;28;20048;-37
2021/05/07 01:50:29;;;;;;;6.25;4.40;;;;;;;18.37;48.53;99418.03;5032806;28;20045;-37
2021/05/07 01:52:55;;;;;;;7.88;4.30;;;;;;;18.39;49.04;99412.38;5032461;28;20433;-37
2021/05/07 01:55:29;;;;;;;6.43;4.10;;;;;;;18.14;49.52;99414.72;5031058;28;20450;-37
2021/05/07 01:57:54;;;;;;;8.05;4.43;;;;;;;18.15;49.02;99421.69;5031174;28;20029;-37
2021/05/07 02:00:23;;;;;;;6.00;4.28;;;;;;;17.79;49.85;99405.28;5032670;28;20535;-37
2021/05/07 02:02:49;;;;;;;6.88;4.78;;;;;;;17.43;50.89;99414.97;5032582;28;20402;-37
2021/05/07 02:05:15;;;;;;;7.28;4.90;;;;;;;17.34;51.21;99409.28;5032547;28;20033;-38
2021/05/07 02:07:44;;;;;;;12.07;5.45;;;;;;;17.40;51.65;99410.09;5032543;28;20033;-38
2021/05/07 02:10:11;;;;;;;7.13;5.70;;;;;;;17.47;51.10;99412.59;5031419;28;20106;-37
2021/05/07 02:12:37;;;;;;;10.20;6.10;;;;;;;17.64;50.20;99407.88;5032248;28;20490;-38
2021/05/07 02:15:10;;;;;;;9.27;5.95;;;;;;;17.67;50.04;99372.41;5032470;28;20118;-37
2021/05/07 02:17:35;;;;;;;11.50;5.65;;;;;;;17.91;49.90;99405.13;5032114;28;20025;-37
2021/05/07 02:20:01;;;;;;;8.18;5.88;;;;;;;17.90;49.71;99408.91;5032219;28;20215;-37
2021/05/07 02:22:27;;;;;;;9.10;5.50;;;;;;;17.86;49.93;99410.50;5032163;28;20035;-38
2021/05/07 02:24:52;;;;;;;12.15;5.55;;;;;;;17.91;50.35;99415.88;5032276;28;20525;-38
2021/05/07 02:27:17;;;;;;;7.43;5.28;;;;;;;17.91;49.50;99410.50;5032177;28;20033;-38
2021/05/07 02:29:43;;;;;;;9.65;5.22;;;;;;;18.14;49.31;99411.19;5032208;28;20034;-37
2021/05/07 02:32:08;;;;;;;7.43;5.28;;;;;;;18.13;48.83;99407.69;5032314;28;20029;-38
2021/05/07 02:34:34;;;;;;;9.40;5.60;;;;;;;18.16;48.47;99406.34;5032157;28;20124;-38
2021/05/07 02:36:59;;;;;;;7.88;5.38;;;;;;;18.20;48.47;99402.06;5031880;28;20029;-37
2021/05/07 02:39:25;;;;;;;9.00;5.90;;;;;;;18.07;48.46;99402.56;5032177;28;20400;-37
2021/05/07 02:41:50;;;;;;;7.40;4.88;;;;;;;18.04;48.89;99405.75;5032095;28;20021;-38
2021/05/07 02:44:15;;;;;;;9.90;5.13;;;;;;;17.55;50.16;99406.72;5031977;28;20040;-38
2021/05/07 02:46:41;;;;;;;10.70;5.45;;;;;;;17.43;50.32;99416.88;5031698;28;20033;-37
2021/05/07 02:49:07;;;;;;;7.82;5.22;;;;;;;17.67;49.15;99409.22;5031866;28;20036;-37
2021/05/07 02:51:33;;;;;;;9.20;5.53;;;;;;;17.20;50.93;99419.63;5031808;28;20048;-36
2021/05/07 02:53:58;;;;;;;7.53;5.35;;;;;;;17.30;49.83;99412.72;5031688;28;20619;-37
2021/05/07 02:56:24;;;;;;;7.75;5.45;;;;;;;17.30;49.89;99416.22;5031322;28;20038;-37
2021/05/07 02:58:49;;;;;;;10.60;5.53;;;;;;;17.49;50.16;99424.72;5032081;28;20041;-38
2021/05/07 03:01:15;;;;;;;6.93;5.63;;;;;;;17.50;50.38;99429.03;5031757;28;20036;-38
2021/05/07 03:03:40;;;;;;;8.45;5.20;;;;;;;17.64;49.79;99429.41;5031449;28;20029;-38
2021/05/07 03:06:06;;;;;;;9.07;5.63;;;;;;;17.55;49.69;99430.94;5031594;28;20033;-38
2021/05/07 03:08:31;;;;;;;9.68;6.00;;;;;;;17.19;50.81;99427.94;5031730;28;20033;-38
2021/05/07 03:10:56;;;;;;;10.00;5.65;;;;;;;17.31;50.80;99427.81;5031070;28;20087;-38
2021/05/07 03:13:22;;;;;;;20.00;12.30;;;;;;;17.38;50.26;99423.00;5031327;28;20053;-37
2021/05/07 03:15:47;;;;;;;9.38;5.95;;;;;;;17.41;50.41;99424.38;5031541;28;20044;-37
2021/05/07 03:18:16;;;;;;;11.32;5.80;;;;;;;17.49;50.10;99431.97;5031257;28;20457;-37
2021/05/07 03:20:42;;;;;;;8.85;5.60;;;;;;;17.51;49.53;99435.22;5031307;28;20116;-38
2021/05/07 03:23:08;;;;;;;9.02;5.47;;;;;;;17.57;49.46;99435.03;5031351;28;20036;-37
2021/05/07 03:25:33;;;;;;;8.52;5.20;;;;;;;17.58;50.02;99436.63;5031244;28;20033;-38
2021/05/07 03:27:59;;;;;;;10.60;5.43;;;;;;;17.49;50.28;99440.84;5031150;28;20041;-38
2021/05/07 03:30:24;;;;;;;7.75;5.30;;;;;;;17.56;50.01;99440.66;5031092;28;20025;-38
2021/05/07 03:32:50;;;;;;;110.07;68.15;;;;;;;17.64;48.79;99437.47;5029614;28;20033;-38
2021/05/07 03:35:15;;;;;;;34.53;19.38;;;;;;;17.36;50.05;99441.28;5030769;28;20143;-38
2021/05/07 03:37:41;;;;;;;24.75;14.90;;;;;;;17.41;49.79;99438.63;5030871;28;20034;-38
2021/05/07 03:40:07;;;;;;;32.45;20.80;;;;;;;17.46;49.29;99441.38;5030754;28;20100;-36
2021/05/07 03:42:32;;;;;;;19.33;9.65;;;;;;;17.66;49.76;99440.72;5030961;28;20029;-37
2021/05/07 03:44:58;;;;;;;10.40;5.95;;;;;;;17.67;49.46;99442.34;5030960;28;20040;-37
2021/05/07 03:47:23;;;;;;;10.40;5.30;;;;;;;17.81;49.11;99436.53;5030590;28;20040;-38
2021/05/07 03:49:49;;;;;;;9.10;5.47;;;;;;;17.90;48.46;99443.91;5030721;28;20087;-37
2021/05/07 03:52:14;;;;;;;9.75;5.97;;;;;;;18.07;48.42;99442.94;5030736;28;20029;-38
2021/05/07 03:54:40;;;;;;;9.30;5.38;;;;;;;18.43;47.32;99443.94;5030881;28;20048;-37
2021/05/07 03:57:05;;;;;;;9.90;5.30;;;;;;;18.78;46.81;99438.94;5030731;28;20469;-37
2021/05/07 03:59:31;;;;;;;7.38;4.93;;;;;;;19.26;45.97;99442.31;5030368;28;20021;-37
2021/05/07 04:01:56;;;;;;;9.63;4.55;;;;;;;19.58;45.59;99441.25;5029905;28;20036;-37
2021/05/07 04:04:22;;;;;;;7.13;4.53;;;;;;;19.92;44.60;99447.72;5030309;28;20448;-38
2021/05/07 04:06:47;;;;;;;5.38;4.05;;;;;;;20.18;43.84;99452.25;5030191;28;20017;-38
2021/05/07 04:09:16;;;;;;;11.80;4.30;;;;;;;20.31;43.63;99449.81;5030460;28;20389;-38
2021/05/07 04:14:13;;;;;;;6.05;4.10;;;;;;;21.35;41.68;99461.75;5030115;28;20490;-37
2021/05/07 04:16:39;;;;;;;11.18;4.18;;;;;;;21.64;42.46;99466.44;5030503;28;20036;-37
2021/05/07 04:19:04;;;;;;;7.85;3.85;;;;;;;21.83;39.93;99461.13;5030212;28;20030;-38
2021/05/07 04:21:30;;;;;;;5.95;3.88;;;;;;;22.11;39.76;99470.34;5030139;28;20030;-37
2021/05/07 04:23:55;;;;;;;14.15;4.13;;;;;;;22.57;40.84;99474.47;5029446;28;20029;-38
2021/05/07 04:26:21;;;;;;;6.28;3.67;;;;;;;22.76;38.97;99477.22;5029429;28;20422;-38
2021/05/07 04:28:46;;;;;;;8.73;3.92;;;;;;;23.32;38.26;99475.66;5028123;28;20068;-38
2021/05/07 04:31:12;;;;;;;10.85;4.35;;;;;;;23.46;37.83;99460.25;5027787;28;20045;-37
2021/05/07 04:33:37;;;;;;;10.45;4.95;;;;;;;23.89;36.43;99464.72;5033403;28;20033;-38
2021/05/07 04:36:04;;;;;;;9.07;4.07;;;;;;;24.33;40.01;99466.91;5025728;28;20460;-37
2021/05/07 04:38:29;;;;;;;41.22;26.92;;;;;;;24.66;36.97;99472.28;5030662;28;20025;-38
2021/05/07 04:40:54;;;;;;;8.88;4.80;;;;;;;25.21;35.50;99475.97;5024822;28;20033;-38
2021/05/07 04:43:20;;;;;;;7.15;3.85;;;;;;;25.55;33.15;99484.47;5027096;28;20124;-36
2021/05/07 04:45:45;;;;;;;6.00;3.80;;;;;;;25.72;33.17;99482.97;5035595;28;20022;-37
2021/05/07 04:48:14;;;;;;;10.30;3.47;;;;;;;25.48;33.04;99475.91;5034984;28;20033;-38
2021/05/07 04:50:40;;;;;;;8.60;3.78;;;;;;;25.42;33.04;99487.22;5035640;28;20453;-37
2021/05/07 04:53:05;;;;;;;10.15;3.63;;;;;;;25.40;33.17;99494.91;5035606;28;20065;-37
2021/05/07 04:55:31;;;;;;;8.75;3.65;;;;;;;25.15;32.81;99489.72;5034972;28;20025;-38
2021/05/07 04:57:56;;;;;;;9.32;3.70;;;;;;;25.68;32.23;99481.97;5033800;28;20025;-38
2021/05/07 05:00:22;;;;;;;7.22;3.40;;;;;;;25.48;32.98;99494.19;5035125;28;20099;-38
2021/05/07 05:02:47;;;;;;;5.90;3.40;;;;;;;25.82;32.25;99490.09;5034885;28;20026;-38
2021/05/07 05:05:15;;;;;;;7.00;3.42;;;;;;;25.97;32.01;99497.91;5035933;28;20033;-38
2021/05/07 05:07:48;;;;;;;6.95;3.85;;;;;;;25.84;32.06;99496.84;5035811;28;20037;-38
2021/05/07 05:10:13;;;;;;;5.05;3.35;;;;;;;26.61;31.23;99503.03;5036079;28;20071;-37
2021/05/07 05:12:39;;;;;;;8.73;3.20;;;;;;;27.07;30.61;99506.34;5035568;28;20037;-37
2021/05/07 05:15:05;;;;;;;8.50;3.35;;;;;;;27.57;29.40;99505.91;5035709;28;20029;-37
2021/05/07 05:17:30;;;;;;;8.35;3.30;;;;;;;27.13;30.18;99502.34;5035706;28;20652;-37
2021/05/07 05:19:56;;;;;;;15.38;3.70;;;;;;;27.07;30.50;99503.59;5035593;28;20033;-38
2021/05/07 05:22:21;;;;;;;7.95;3.50;;;;;;;27.33;30.06;99509.13;5035402;28;20591;-38
2021/05/07 05:24:47;;;;;;;8.00;3.40;;;;;;;27.48;29.97;99511.38;5035763;28;20049;-37
2021/05/07 05:27:13;;;;;;;5.40;3.38;;;;;;;27.44;30.06;99504.16;5035545;28;20028;-37
2021/05/07 05:29:38;;;;;;;4.97;3.35;;;;;;;27.27;30.71;99499.50;5035743;28;20396;-38
2021/05/07 05:32:04;;;;;;;6.88;3.13;;;;;;;27.03;30.70;99506.16;5035487;28;20033;-38
2021/05/07 05:34:30;;;;;;;5.47;2.88;;;;;;;27.14;30.98;99514.06;5035445;28;20033;-39
2021/05/07 05:36:55;;;;;;;8.68;3.15;;;;;;;27.54;30.22;99508.47;5035673;28;20021;-37
2021/05/07 05:39:21;;;;;;;8.73;3.00;;;;;;;26.96;31.09;99511.31;5035745;28;20385;-38
2021/05/07 05:41:46;;;;;;;8.63;2.95;;;;;;;27.02;31.23;99512.75;5035596;28;20096;-37
2021/05/07 05:44:12;;;;;;;9.15;3.17;;;;;;;27.00;31.04;99506.03;5033596;28;20397;-37
2021/05/07 05:46:37;;;;;;;4.90;3.25;;;;;;;26.27;32.30;99511.84;5032288;28;20036;-39
2021/05/07 05:49:04;;;;;;;4.55;3.20;;;;;;;27.04;31.31;99498.81;5032480;28;20100;-37
2021/05/07 05:51:29;;;;;;;7.50;3.17;;;;;;;27.24;30.87;99506.34;5032313;28;20097;-39
2021/05/07 05:53:55;;;;;;;8.70;3.60;;;;;;;26.41;32.13;99504.38;5032750;28;20033;-37
2021/05/07 05:56:20;;;;;;;6.45;3.28;;;;;;;26.79;31.62;99506.63;5032578;28;20020;-37
2021/05/07 05:58:46;;;;;;;6.78;3.47;;;;;;;27.10;31.58;99509.22;5031153;28;20018;-38
2021/05/07 06:01:11;;;;;;;8.35;3.55;;;;;;;27.64;30.83;99514.41;5030651;28;20485;-38
2021/05/07 06:03:37;;;;;;;7.43;3.72;;;;;;;28.42;29.84;99516.16;5032003;28;20030;-38
2021/05/07 06:06:02;;;;;;;6.88;3.30;;;;;;;28.53;29.66;99511.16;5032006;28;20026;-38
2021/05/07 06:08:28;;;;;;;7.20;3.67;;;;;;;28.94;28.96;99506.09;5030917;28;20037;-38
2021/05/07 06:10:53;;;;;;;7.50;3.80;;;;;;;28.89;28.57;99509.06;5032130;28;20068;-39
2021/05/07 06:13:19;;;;;;;5.50;3.05;;;;;;;28.87;28.34;99506.63;5032171;28;20383;-38
2021/05/07 06:15:44;;;;;;;7.93;3.45;;;;;;;28.80;28.78;99504.41;5030313;28;20057;-37
2021/05/07 06:18:09;;;;;;;5.38;3.10;;;;;;;28.83;28.43;99502.97;5031884;28;20029;-38
2021/05/07 06:20:35;;;;;;;8.43;3.17;;;;;;;29.31;28.33;99504.41;5028334;28;20022;-37
2021/05/07 06:23:01;;;;;;;6.72;3.28;;;;;;;29.92;27.34;99514.06;5011976;28;20462;-37
2021/05/07 06:25:26;;;;;;;5.57;3.20;;;;;;;30.05;27.27;99512.94;5017531;28;20102;-38
2021/05/07 06:27:52;;;;;;;9.07;3.70;;;;;;;29.96;26.98;99499.31;5031609;28;20083;-37
2021/05/07 06:30:17;;;;;;;5.53;3.20;;;;;;;29.09;28.13;99494.56;5031233;28;20030;-37
2021/05/07 06:32:43;;;;;;;6.00;3.28;;;;;;;29.55;27.91;99501.00;5029864;28;20460;-37
2021/05/07 06:35:09;;;;;;;9.05;3.78;;;;;;;30.19;27.29;99505.19;5031100;28;20033;-38
2021/05/07 06:37:35;;;;;;;7.70;3.63;;;;;;;30.24;27.36;99509.66;5031451;28;20022;-38
2021/05/07 06:40:00;;;;;;;7.38;3.10;;;;;;;30.69;26.31;99514.28;5031292;28;20486;-38
2021/05/07 06:42:26;;;;;;;6.97;3.20;;;;;;;30.72;26.15;99510.84;5031404;28;20342;-37
2021/05/07 06:44:52;;;;;;;6.13;2.92;;;;;;;30.91;26.17;99518.53;5030058;28;20040;-38
2021/05/07 06:47:17;;;;;;;5.38;3.15;;;;;;;31.29;25.24;99522.78;5031012;28;20482;-36
2021/05/07 06:49:43;;;;;;;7.82;3.20;;;;;;;31.52;25.23;99522.28;5029641;28;20061;-37
2021/05/07 06:52:09;;;;;;;5.75;2.97;;;;;;;30.64;26.30;99517.25;5031303;28;20025;-37
2021/05/07 06:54:34;;;;;;;4.95;3.03;;;;;;;31.66;25.51;99510.88;5031026;28;20481;-37
2021/05/07 06:57:01;;;;;;;4.85;3.13;;;;;;;32.04;24.76;99515.88;5030816;28;20030;-39
2021/05/07 06:59:28;;;;;;;4.55;3.03;;;;;;;32.41;24.49;99506.56;5031134;28;20437;-38
2021/05/07 07:01:59;;;;;;;6.45;3.53;;;;;;;32.84;23.93;99505.66;5030929;28;20048;-37
2021/05/07 07:04:25;;;;;;;4.75;3.08;;;;;;;32.79;23.93;99505.13;5030723;28;20373;-38
2021/05/07 07:06:50;;;;;;;7.53;3.10;;;;;;;32.93;23.78;99500.72;5030649;28;20029;-38
2021/05/07 07:09:16;;;;;;;7.30;3.53;;;;;;;31.83;24.90;99501.53;5030683;28;20025;-37
2021/05/07 07:11:42;;;;;;;5.93;3.40;;;;;;;31.79;24.89;99486.88;5031124;28;20032;-37
2021/05/07 07:14:07;;;;;;;10.15;3.60;;;;;;;30.43;26.78;99478.16;5030839;28;20077;-38
2021/05/07 07:16:33;;;;;;;7.90;3.60;;;;;;;31.46;25.07;99491.50;5031066;28;20515;-38
2021/05/07 07:18:59;;;;;;;6.50;3.50;;;;;;;31.33;25.67;99484.41;5030926;28;20450;-37
2021/05/07 07:21:24;;;;;;;4.53;2.88;;;;;;;32.12;24.91;99481.88;5029926;28;20539;-37
2021/05/07 07:23:50;;;;;;;5.57;3.33;;;;;;;32.73;23.72;99486.13;5030108;28;20029;-39
2021/05/07 07:26:15;;;;;;;5.35;3.00;;;;;;;32.00;24.75;99484.69;5029592;28;20043;-39
2021/05/07 07:28:43;;;;;;;7.68;2.80;;;;;;;32.51;23.21;99484.00;5029937;28;20029;-39
2021/05/07 07:31:08;;;;;;;11.00;3.53;;;;;;;31.63;25.29;99478.59;5027651;28;20095;-38
2021/05/07 07:33:34;;;;;;;5.85;3.00;;;;;;;32.25;23.85;99477.09;5029611;28;20648;-38
2021/05/07 07:35:59;;;;;;;7.53;3.50;;;;;;;31.68;24.58;99464.59;5029994;28;20037;-38
2021/05/07 07:38:25;;;;;;;7.40;3.50;;;;;;;31.11;25.43;99461.84;5030609;28;20136;-39
2021/05/07 07:40:51;;;;;;;7.25;3.58;;;;;;;32.16;24.52;99465.47;5030733;28;20021;-39
2021/05/07 07:43:18;;;;;;;9.30;3.60;;;;;;;32.12;23.80;99467.31;5030670;28;20022;-39
2021/05/07 07:45:44;;;;;;;8.00;3.30;;;;;;;32.69;23.92;99465.97;5030343;28;20033;-39
2021/05/07 07:48:09;;;;;;;7.85;3.22;;;;;;;33.36;23.44;99461.47;5029905;28;20406;-39
2021/05/07 07:50:35;;;;;;;6.13;3.45;;;;;;;32.56;24.18;99458.94;5029511;28;20486;-39
2021/05/07 07:53:00;;;;;;;7.15;3.60;;;;;;;31.33;25.43;99449.47;5029736;28;20031;-39
2021/05/07 07:55:26;;;;;;;9.55;3.42;;;;;;;32.58;23.63;99453.91;5029198;28;20058;-39
2021/05/07 07:57:51;;;;;;;8.82;3.90;;;;;;;33.05;22.98;99441.13;5029438;28;20106;-38
2021/05/07 08:00:17;;;;;;;7.25;3.70;;;;;;;32.23;23.78;99442.81;5029315;28;20033;-38
2021/05/07 08:02:44;;;;;;;5.93;3.50;;;;;;;32.07;23.97;99451.09;5029417;28;20351;-38
2021/05/07 08:05:10;;;;;;;5.35;3.38;;;;;;;32.53;23.44;99449.44;5029599;28;20060;-37
2021/05/07 08:07:36;;;;;;;10.80;3.88;;;;;;;32.00;24.03;99450.88;5028706;28;20037;-38
2021/05/07 08:10:02;;;;;;;9.02;4.13;;;;;;;31.17;25.19;99443.94;5029131;28;20025;-38
2021/05/07 08:12:27;;;;;;;10.57;7.70;;;;;;;31.49;25.01;99444.06;5028830;28;20046;-39
2021/05/07 08:14:53;;;;;;;7.40;3.90;;;;;;;32.05;23.97;99443.19;5029384;28;20060;-39
2021/05/07 08:17:18;;;;;;;5.25;3.35;;;;;;;32.01;23.84;99441.47;5028752;28;20026;-38
2021/05/07 08:19:44;;;;;;;7.93;3.03;;;;;;;32.58;23.68;99436.56;5028874;28;20401;-38
2021/05/07 08:22:10;;;;;;;5.65;3.45;;;;;;;31.99;23.91;99439.06;5029492;28;20029;-38
2021/05/07 08:24:35;;;;;;;5.68;4.03;;;;;;;31.81;24.67;99438.59;5030129;28;20460;-38
2021/05/07 08:27:01;;;;;;;5.97;3.55;;;;;;;30.50;25.70;99429.78;5029982;28;20037;-38
2021/05/07 08:29:27;;;;;;;6.78;3.80;;;;;;;30.02;26.40;99415.69;5030185;28;20032;-39
2021/05/07 08:31:52;;;;;;;7.53;3.92;;;;;;;30.16;25.99;99395.34;5030063;28;20129;-38
2021/05/07 08:34:20;;;;;;;7.85;3.35;;;;;;;30.55;25.78;99391.09;5029642;28;20116;-38
2021/05/07 08:36:45;;;;;;;5.72;3.42;;;;;;;30.49;26.12;99388.94;5029807;28;20509;-39
2021/05/07 08:39:11;;;;;;;9.25;3.50;;;;;;;30.53;25.84;99393.38;5029702;28;20026;-37
2021/05/07 08:41:36;;;;;;;7.00;3.50;;;;;;;30.93;25.74;99402.81;5029619;28;20429;-38
2021/05/07 08:44:02;;;;;;;6.43;3.83;;;;;;;30.91;25.41;99400.41;5029446;28;20029;-38
2021/05/07 08:46:28;;;;;;;11.20;3.90;;;;;;;30.17;26.76;99399.69;5029582;28;20029;-38
2021/05/07 08:48:53;;;;;;;10.25;3.45;;;;;;;30.54;26.45;99386.75;5027288;28;20033;-39
2021/05/07 08:51:19;;;;;;;13.55;3.78;;;;;;;31.70;25.20;99399.84;5003052;28;20444;-38
2021/05/07 08:53:44;;;;;;;7.88;3.30;;;;;;;31.76;25.11;99401.19;5028540;28;20022;-38
2021/05/07 08:56:10;;;;;;;6.47;3.80;;;;;;;31.54;25.57;99394.31;5029241;28;20031;-38
2021/05/07 08:58:35;;;;;;;9.27;3.97;;;;;;;31.14;25.60;99386.94;5029166;28;20036;-38
2021/05/07 09:01:02;;;;;;;8.60;4.10;;;;;;;30.67;25.70;99383.97;5028881;28;20024;-39
2021/05/07 09:03:37;;;;;;;5.97;4.10;;;;;;;30.53;25.90;99374.16;5029061;28;20140;-37
2021/05/07 09:06:16;;;;;;;7.05;3.45;;;;;;;31.29;25.48;99373.59;5029123;28;20021;-39
2021/05/07 09:08:41;;;;;;;6.43;3.65;;;;;;;31.55;25.15;99368.44;5028711;28;20029;-39
2021/05/07 09:11:07;;;;;;;5.68;3.83;;;;;;;31.82;24.88;99374.19;5023842;28;20030;-38
2021/05/07 09:13:32;;;;;;;7.10;3.90;;;;;;;31.51;25.46;99374.97;5009022;28;20540;-38
2021/05/07 09:16:06;;;;;;;8.60;4.18;;;;;;;31.77;24.91;99379.97;5011904;28;20029;-38
2021/05/07 09:18:41;;;;;;;9.57;4.70;;;;;;;31.61;25.53;99371.72;5009238;28;20022;-38
2021/05/07 09:21:07;;;;;;;5.45;3.63;;;;;;;31.63;25.73;99374.13;5012868;28;20071;-38
2021/05/07 09:23:46;;;;;;;7.65;3.60;;;;;;;32.45;25.01;99376.09;5012426;28;20029;-38
2021/05/07 09:26:12;;;;;;;9.13;6.82;;;;;;;33.06;24.26;99362.81;5013122;28;20037;-38
2021/05/07 09:28:37;;;;;;;10.10;5.55;;;;;;;33.51;23.68;99350.28;5012468;28;20033;-38
2021/05/07 09:31:10;;;;;;;9.32;3.78;;;;;;;33.82;23.08;99360.28;5019316;28;20157;-39
2021/05/07 09:33:43;;;;;;;7.68;3.42;;;;;;;33.84;22.68;99340.59;5032304;28;20439;-39
2021/05/07 09:36:09;;;;;;;8.85;3.38;;;;;;;34.05;22.39;99343.69;5032345;28;20040;-39
2021/05/07 09:38:34;;;;;;;4.63;3.40;;;;;;;33.80;22.14;99353.56;5032326;28;20405;-39
2021/05/07 09:41:00;;;;;;;11.25;3.58;;;;;;;32.86;23.48;99334.47;5032481;28;20044;-38
2021/05/07 09:43:29;;;;;;;4.57;3.35;;;;;;;31.59;24.80;99332.78;5031433;28;20025;-39
2021/05/07 09:45:54;;;;;;;9.20;3.13;;;;;;;31.63;24.29;99319.13;5032513;28;20026;-39
2021/05/07 09:48:21;;;;;;;7.90;3.47;;;;;;;30.76;25.78;99327.75;5031041;28;20045;-39
2021/05/07 09:50:47;;;;;;;6.30;3.28;;;;;;;30.66;25.56;99316.50;5032025;28;20037;-38
2021/05/07 09:53:15;;;;;;;5.70;3.60;;;;;;;31.07;25.09;99304.34;5031622;28;20042;-39
2021/05/07 09:55:41;;;;;;;6.47;3.70;;;;;;;31.32;25.69;99302.22;5032065;28;20040;-38
2021/05/07 09:58:06;;;;;;;8.13;3.72;;;;;;;31.66;25.67;99308.22;5032231;28;20021;-39
2021/05/07 10:00:32;;;;;;;8.80;3.55;;;;;;;31.67;25.19;99317.25;5032203;28;20029;-39
2021/05/07 10:02:57;;;;;;;6.53;3.30;;;;;;;31.69;24.98;99314.94;5032000;28;20032;-39
2021/05/07 10:05:24;;;;;;;4.68;3.40;;;;;;;31.79;25.36;99310.84;5030605;28;20025;-39
2021/05/07 10:07:50;;;;;;;5.95;3.15;;;;;;;32.25;24.61;99303.72;5031689;28;20103;-39
2021/05/07 10:10:15;;;;;;;5.80;3.40;;;;;;;31.28;25.83;99308.78;5031829;28;20561;-39
2021/05/07 10:12:44;;;;;;;5.60;3.30;;;;;;;30.19;26.75;99298.63;5030514;28;20049;-39
2021/05/07 10:15:10;;;;;;;10.77;3.25;;;;;;;30.11;27.87;99286.63;5030721;28;20084;-38
2021/05/07 10:17:35;;;;;;;6.63;3.10;;;;;;;30.31;27.61;99284.06;5030382;28;20038;-39
2021/05/07 10:20:01;;;;;;;10.77;3.60;;;;;;;30.56;27.14;99282.09;5031981;28;20044;-38
2021/05/07 10:22:41;;;;;;;6.82;3.47;;;;;;;30.45;27.36;99291.97;5030407;28;20025;-39
2021/05/07 10:25:16;;;;;;;6.03;3.40;;;;;;;30.50;26.96;99291.72;5031932;28;20330;-38
2021/05/07 10:27:49;;;;;;;7.75;3.50;;;;;;;30.17;26.95;99292.69;5032171;28;20148;-38
2021/05/07 10:30:31;;;;;;;5.70;3.20;;;;;;;29.61;27.58;99290.53;5031027;28;20052;-38
2021/05/07 10:33:00;;;;;;;4.90;3.00;;;;;;;29.75;27.76;99280.03;5032087;28;20033;-37
2021/05/07 10:35:34;;;;;;;7.50;3.50;;;;;;;29.67;27.77;99286.41;5031618;28;20092;-37
2021/05/07 10:38:26;;;;;;;5.72;3.15;;;;;;;29.88;27.87;99291.00;5031371;28;20037;-37
2021/05/07 10:41:12;;;;;;;7.43;3.30;;;;;;;30.11;27.11;99289.38;5029650;28;20535;-38
2021/05/07 10:43:37;;;;;;;9.57;3.30;;;;;;;29.79;27.31;99293.84;5031095;28;20065;-38
2021/05/07 10:46:02;;;;;;;9.43;2.97;;;;;;;30.05;27.58;99292.72;5031278;28;20417;-39
2021/05/07 10:48:28;;;;;;;5.50;2.80;;;;;;;30.43;26.97;99291.53;5031408;28;20026;-38
2021/05/07 10:50:56;;;;;;;5.90;3.30;;;;;;;30.31;26.41;99287.63;5029590;28;20561;-38
2021/05/07 10:53:29;;;;;;;5.38;3.03;;;;;;;30.56;25.54;99277.41;5031206;28;20052;-38
2021/05/07 10:55:56;;;;;;;6.05;3.22;;;;;;;30.60;25.66;99275.56;5031113;28;20446;-51
2021/05/07 10:58:37;;;;;;;8.60;3.13;;;;;;;30.20;26.94;99270.06;5031093;28;20060;-51
2021/05/07 11:01:26;;;;;;;8.85;3.30;;;;;;;30.10;27.03;99268.59;5030576;28;20379;-51
2021/05/07 11:04:21;;;;;;;9.80;3.55;;;;;;;30.54;26.99;99265.16;5024374;28;20450;-51
2021/05/07 11:06:46;;;;;;;8.55;4.03;;;;;;;30.88;27.12;99271.19;5021613;28;20052;-52
2021/05/07 11:09:22;;;;;;;7.60;3.00;;;;;;;31.09;26.63;99263.56;5029213;28;20025;-53
2021/05/07 11:11:52;;;;;;;8.70;3.38;;;;;;;30.56;27.03;99258.19;5030641;28;20108;-52
2021/05/07 11:14:21;;;;;;;8.75;3.53;;;;;;;29.81;27.66;99244.97;5030522;28;20517;-52
2021/05/07 11:16:48;;;;;;;7.57;3.40;;;;;;;29.46;28.67;99237.19;5030907;28;20545;-52
2021/05/07 11:19:21;;;;;;;6.57;3.22;;;;;;;30.03;28.08;99246.41;5030891;28;20025;-50
2021/05/07 11:21:59;;;;;;;7.10;3.67;;;;;;;30.27;27.45;99245.53;5030730;28;20013;-52
2021/05/07 11:24:30;;;;;;;9.27;3.97;;;;;;;30.49;27.35;99243.47;5028907;28;20020;-51
2021/05/07 11:26:55;;;;;;;7.78;3.88;;;;;;;29.51;28.92;99227.91;5030326;28;20104;-52
2021/05/07 11:29:32;;;;;;;6.00;3.55;;;;;;;30.24;27.38;99232.53;5030482;28;20105;-52
2021/05/07 11:32:27;;;;;;;7.03;3.92;;;;;;;30.54;27.41;99234.97;5027804;28;20088;-51